Terminal Aerodrome Forecast
Issued by NWS Sterling, VA

Current Version | Previous Version | Text Only | Print | Product List | Glossary Off
Versions: 1 2 3 4 5 6 7 8 9 10 11 12 13 14 15 16 17 18

000
FTUS41 KLWX 030522
TAFMRB
TAF
KMRB 030522Z 0306/0406 20004KT P6SM FEW200
     FM031500 21010KT P6SM SCT050 SCT200
     FM040000 20005KT P6SM BKN050 BKN100
     FM040500 26004KT P6SM BKN050 BKN100=

USA.gov is the U.S. government's official web portal to all federal, state and local government web resources and services.